Time;durP1;ratioP1;P1;durP2;ratioP2;P2;SDS_P1;SDS_P2;PMS_P1;PMS_P2;Temp;Humidity;BMP_temperature;BMP_pressure;BME280_temperature;BME280_humidity;BME280_pressure;Samples;Min_cycle;Max_cycle;Signal;HPM_P1;HPM_P2
2022/08/26 00:00:33;;;;;;;34.88;31.02;;;20.90;99.90;;;;;;5044169;28;19925;-56
2022/08/26 00:02:59;;;;;;;40.03;30.70;;;20.90;99.90;;;;;;5044085;28;20122;-52
2022/08/26 00:05:26;;;;;;;35.92;30.52;;;20.90;99.90;;;;;;5044012;28;20132;-55
2022/08/26 00:07:52;;;;;;;41.03;30.85;;;20.90;99.90;;;;;;5043103;28;20045;-55
2022/08/26 00:10:20;;;;;;;37.33;30.05;;;20.90;99.90;;;;;;5043428;28;20044;-55
2022/08/26 00:12:46;;;;;;;34.75;28.90;;;20.90;99.90;;;;;;5043864;28;20055;-52
2022/08/26 00:15:15;;;;;;;37.20;28.48;;;20.90;99.90;;;;;;5043701;28;20052;-53
2022/08/26 00:17:41;;;;;;;29.27;25.95;;;20.80;99.90;;;;;;5043522;28;20055;-54
2022/08/26 00:20:16;;;;;;;32.08;27.17;;;20.90;99.90;;;;;;5040421;28;20045;-56
2022/08/26 00:22:42;;;;;;;28.30;25.35;;;20.90;99.90;;;;;;5040614;28;20048;-54
2022/08/26 00:25:09;;;;;;;28.48;25.38;;;20.90;99.90;;;;;;5043104;28;20218;-55
2022/08/26 00:27:35;;;;;;;26.33;23.58;;;20.90;99.90;;;;;;5042576;28;20501;-53
2022/08/26 00:30:08;;;;;;;28.75;22.90;;;20.80;99.90;;;;;;5042559;28;20041;-55
2022/08/26 00:32:36;;;;;;;24.92;22.00;;;20.80;99.90;;;;;;5044185;28;20071;-53
2022/08/26 00:35:03;;;;;;;33.20;21.45;;;20.80;99.90;;;;;;5043857;28;20052;-55
2022/08/26 00:37:34;;;;;;;26.52;20.20;;;20.80;99.90;;;;;;5043578;28;20511;-52
2022/08/26 00:40:01;;;;;;;26.98;20.27;;;20.80;99.90;;;;;;5042998;28;20076;-54
2022/08/26 00:42:30;;;;;;;25.42;18.83;;;20.80;99.90;;;;;;5042451;28;20072;-55
2022/08/26 00:44:56;;;;;;;25.00;20.20;;;20.90;99.90;;;;;;5042186;28;20053;-54
2022/08/26 00:47:31;;;;;;;25.05;19.63;;;20.80;99.90;;;;;;5042856;28;20055;-55
2022/08/26 00:50:00;;;;;;;25.42;17.35;;;20.80;99.90;;;;;;5042860;28;20049;-55
2022/08/26 00:52:27;;;;;;;25.77;18.30;;;20.80;99.90;;;;;;5041748;28;20049;-55
2022/08/26 00:55:01;;;;;;;23.42;19.45;;;20.80;99.90;;;;;;5038461;28;20052;-54
2022/08/26 00:57:27;;;;;;;26.08;18.83;;;20.80;99.90;;;;;;5043256;28;20044;-53
2022/08/26 00:59:59;;;;;;;25.42;17.65;;;20.70;99.90;;;;;;5043165;28;20135;-54
2022/08/26 01:02:25;;;;;;;23.33;16.30;;;20.70;99.90;;;;;;5042482;28;20118;-54
2022/08/26 01:04:59;;;;;;;25.90;16.75;;;20.60;99.90;;;;;;5042786;28;20053;-54
2022/08/26 01:07:27;;;;;;;26.40;16.77;;;20.60;99.90;;;;;;5042627;28;20048;-54
2022/08/26 01:09:55;;;;;;;24.02;15.27;;;20.60;99.90;;;;;;5042636;28;20044;-52
2022/08/26 01:12:23;;;;;;;23.20;15.07;;;20.60;99.90;;;;;;5042686;28;20071;-55
2022/08/26 01:14:50;;;;;;;19.38;14.75;;;20.60;99.90;;;;;;5042954;28;20059;-56
2022/08/26 01:17:17;;;;;;;24.17;14.48;;;20.60;99.90;;;;;;5042622;28;20397;-54
2022/08/26 01:19:56;;;;;;;25.58;16.33;;;20.60;99.90;;;;;;5042779;28;20064;-55
2022/08/26 01:22:40;;;;;;;18.42;14.00;;;20.50;99.90;;;;;;5042191;28;20178;-54
2022/08/26 01:25:07;;;;;;;17.50;12.93;;;20.60;99.90;;;;;;5043449;28;20052;-53
2022/08/26 01:27:34;;;;;;;23.05;11.88;;;20.60;99.90;;;;;;5042701;28;20052;-54
2022/08/26 01:30:02;;;;;;;19.75;12.48;;;20.50;99.90;;;;;;5042398;28;20124;-51
2022/08/26 01:32:30;;;;;;;17.67;11.38;;;20.50;99.90;;;;;;5042158;28;20080;-54
2022/08/26 01:34:56;;;;;;;17.30;11.10;;;20.50;99.90;;;;;;5042542;28;20137;-54
2022/08/26 01:37:26;;;;;;;22.08;11.00;;;20.50;99.90;;;;;;5041922;28;20064;-54
2022/08/26 01:39:54;;;;;;;21.65;11.65;;;20.50;99.90;;;;;;5042117;28;20120;-54
2022/08/26 01:42:22;;;;;;;21.02;10.95;;;20.50;99.90;;;;;;5045015;28;20051;-53
2022/08/26 01:44:59;;;;;;;14.50;9.20;;;20.50;99.90;;;;;;5046104;28;20051;-54
2022/08/26 01:47:28;;;;;;;17.50;9.80;;;20.50;99.90;;;;;;5046195;28;20045;-53
2022/08/26 01:49:58;;;;;;;17.92;9.90;;;20.50;99.90;;;;;;5045994;28;20045;-55
2022/08/26 01:52:27;;;;;;;16.02;9.60;;;20.50;99.90;;;;;;5044993;28;20415;-52
2022/08/26 01:54:54;;;;;;;19.42;9.00;;;20.50;99.90;;;;;;5045841;28;20053;-53
2022/08/26 01:57:21;;;;;;;18.17;7.28;;;20.50;99.90;;;;;;5045889;28;20739;-52
2022/08/26 01:59:49;;;;;;;15.60;8.10;;;20.30;99.90;;;;;;5044813;28;20091;-52
2022/08/26 02:02:15;;;;;;;13.02;6.80;;;20.20;99.90;;;;;;5045964;28;20064;-54
2022/08/26 02:04:52;;;;;;;16.30;7.30;;;20.20;99.90;;;;;;5045904;28;20072;-53
2022/08/26 02:07:20;;;;;;;13.10;6.57;;;20.20;99.90;;;;;;5046482;28;20114;-54
2022/08/26 02:09:46;;;;;;;16.20;6.72;;;20.10;99.90;;;;;;5046288;28;20045;-54
2022/08/26 02:12:15;;;;;;;13.80;6.15;;;20.10;99.90;;;;;;5046806;28;20053;-54
2022/08/26 02:14:48;;;;;;;12.40;5.32;;;20.10;99.90;;;;;;5044547;28;20557;-52
2022/08/26 02:17:16;;;;;;;14.05;5.38;;;20.00;99.90;;;;;;5027272;28;20065;-54
2022/08/26 02:19:46;;;;;;;15.35;5.50;;;20.00;99.90;;;;;;5045781;28;20094;-52
2022/08/26 02:22:17;;;;;;;11.15;4.68;;;20.00;99.90;;;;;;5046398;28;20400;-52
2022/08/26 02:24:55;;;;;;;12.07;4.28;;;19.90;99.90;;;;;;5046065;28;20049;-54
2022/08/26 02:27:33;;;;;;;12.15;4.40;;;19.80;99.90;;;;;;5046552;28;20462;-53
2022/08/26 02:30:22;;;;;;;13.25;4.13;;;19.80;99.90;;;;;;5046047;28;20480;-52
2022/08/26 02:32:50;;;;;;;9.70;4.35;;;19.80;99.90;;;;;;5028069;28;20143;-54
2022/08/26 02:35:22;;;;;;;14.43;3.70;;;19.70;99.90;;;;;;5044747;28;20408;-53
2022/08/26 02:37:50;;;;;;;9.82;4.13;;;19.70;99.90;;;;;;5045700;28;20052;-52
2022/08/26 02:40:21;;;;;;;7.80;3.22;;;19.70;99.90;;;;;;5045260;28;20114;-52
2022/08/26 02:42:48;;;;;;;9.90;3.72;;;19.70;99.90;;;;;;5045954;28;20057;-54
2022/08/26 02:45:14;;;;;;;8.40;3.33;;;19.70;99.90;;;;;;5028226;28;20048;-55
2022/08/26 02:47:41;;;;;;;12.02;4.03;;;19.60;99.90;;;;;;5046008;28;20084;-54
2022/08/26 02:50:07;;;;;;;13.13;3.35;;;19.70;99.90;;;;;;5045768;28;20056;-54
2022/08/26 02:52:33;;;;;;;7.57;3.13;;;19.70;99.90;;;;;;5043923;28;20056;-53
2022/08/26 02:54:59;;;;;;;12.73;3.55;;;19.80;99.90;;;;;;5026987;28;20553;-52
2022/08/26 02:57:25;;;;;;;11.32;2.65;;;19.80;99.90;;;;;;5045669;28;20567;-53
2022/08/26 02:59:52;;;;;;;11.90;3.10;;;19.80;99.90;;;;;;5045363;28;20049;-52
2022/08/26 03:02:18;;;;;;;10.40;3.80;;;19.80;99.90;;;;;;5045070;28;20052;-54
2022/08/26 03:04:47;;;;;;;9.65;3.28;;;19.80;99.90;;;;;;5044769;28;20104;-51
2022/08/26 03:07:13;;;;;;;8.88;2.83;;;19.80;99.90;;;;;;5044803;28;20052;-53
2022/08/26 03:09:39;;;;;;;10.18;3.30;;;19.80;99.90;;;;;;5045536;28;20069;-53
2022/08/26 03:12:06;;;;;;;10.00;3.25;;;19.90;99.90;;;;;;5044487;28;20048;-54
2022/08/26 03:14:32;;;;;;;13.63;3.00;;;19.80;99.90;;;;;;5044827;28;20085;-53
2022/08/26 03:16:59;;;;;;;14.40;3.55;;;19.80;99.90;;;;;;5045451;28;20130;-50
2022/08/26 03:19:29;;;;;;;15.60;3.80;;;19.80;99.90;;;;;;5043914;28;20080;-64
2022/08/26 03:21:57;;;;;;;13.57;3.50;;;19.80;99.90;;;;;;5040064;28;20404;-52
2022/08/26 03:24:24;;;;;;;18.25;3.42;;;19.90;99.90;;;;;;5041013;28;20049;-51
2022/08/26 03:26:51;;;;;;;14.10;3.20;;;19.90;99.90;;;;;;5044966;28;20147;-54
2022/08/26 03:32:02;;;;;;;9.80;2.50;;;19.90;99.90;;;;;;5044877;28;20396;-53
2022/08/26 03:34:28;;;;;;;14.55;3.58;;;19.90;99.90;;;;;;5044278;28;20185;-53
2022/08/26 03:36:54;;;;;;;12.50;3.03;;;19.80;99.90;;;;;;5044016;28;20561;-55
2022/08/26 03:39:20;;;;;;;11.10;2.85;;;19.90;99.90;;;;;;5025751;28;20060;-52
2022/08/26 03:41:46;;;;;;;12.82;3.92;;;19.80;99.90;;;;;;5044859;28;20106;-53
2022/08/26 03:44:13;;;;;;;17.17;3.03;;;19.90;99.90;;;;;;5044215;28;20506;-52
2022/08/26 03:46:39;;;;;;;15.48;3.40;;;19.90;99.90;;;;;;5044602;28;20056;-52
2022/08/26 03:49:06;;;;;;;10.25;3.53;;;19.90;99.90;;;;;;5043469;28;20120;-53
2022/08/26 03:51:33;;;;;;;10.02;2.45;;;19.90;99.90;;;;;;5044390;28;20415;-55
2022/08/26 03:54:03;;;;;;;9.77;2.53;;;19.90;99.90;;;;;;5043000;28;20096;-54
2022/08/26 03:56:32;;;;;;;12.77;3.28;;;19.90;99.90;;;;;;5044001;28;20951;-54
2022/08/26 03:58:59;;;;;;;11.00;2.55;;;19.80;99.90;;;;;;5043977;28;20450;-53
2022/08/26 04:01:26;;;;;;;10.35;3.10;;;19.80;99.90;;;;;;5043819;28;20508;-53
2022/08/26 04:03:58;;;;;;;11.43;3.17;;;19.80;99.90;;;;;;5042482;28;20056;-54
2022/08/26 04:06:29;;;;;;;13.27;3.03;;;19.80;99.90;;;;;;5043184;28;20053;-54
2022/08/26 04:08:58;;;;;;;16.17;3.67;;;19.80;99.90;;;;;;5044029;28;20053;-52
2022/08/26 04:11:30;;;;;;;12.23;3.15;;;19.80;99.90;;;;;;5044472;28;20450;-53
2022/08/26 04:13:58;;;;;;;13.85;3.45;;;19.80;99.90;;;;;;5044780;28;20076;-53
2022/08/26 04:16:26;;;;;;;16.70;4.10;;;19.80;99.90;;;;;;5043824;28;20079;-54
2022/08/26 04:18:53;;;;;;;15.13;3.53;;;19.80;99.90;;;;;;5043691;28;20459;-53
2022/08/26 04:21:19;;;;;;;14.10;3.67;;;19.80;99.90;;;;;;5024591;28;20721;-51
2022/08/26 04:23:45;;;;;;;13.65;3.47;;;19.80;99.90;;;;;;5044482;28;20045;-54
2022/08/26 04:26:11;;;;;;;14.27;3.78;;;19.80;99.90;;;;;;5043231;28;20049;-52
2022/08/26 04:28:37;;;;;;;17.15;4.53;;;19.70;99.90;;;;;;5044182;28;20056;-52
2022/08/26 04:31:03;;;;;;;16.02;2.90;;;19.80;99.90;;;;;;5043857;28;20043;-52
2022/08/26 04:33:29;;;;;;;13.35;3.78;;;19.80;99.90;;;;;;5044044;28;20516;-53
2022/08/26 04:36:01;;;;;;;13.68;3.50;;;19.80;99.90;;;;;;5043367;28;20049;-50
2022/08/26 04:38:28;;;;;;;11.77;3.22;;;19.80;99.90;;;;;;5043301;28;20656;-52
2022/08/26 04:40:54;;;;;;;14.32;3.25;;;19.80;99.90;;;;;;5043044;28;20059;-54
2022/08/26 04:43:20;;;;;;;10.05;3.22;;;19.80;99.90;;;;;;5025018;28;20063;-52
2022/08/26 04:45:47;;;;;;;14.32;3.28;;;19.80;99.90;;;;;;5042342;28;20049;-53
2022/08/26 04:48:14;;;;;;;13.68;3.53;;;19.80;99.90;;;;;;5043324;28;20492;-53
2022/08/26 04:50:50;;;;;;;13.18;3.20;;;19.90;99.90;;;;;;5043284;28;20044;-53
2022/08/26 04:53:16;;;;;;;12.65;3.65;;;19.90;99.90;;;;;;5042884;28;20111;-51
2022/08/26 04:55:42;;;;;;;16.63;3.35;;;19.80;99.90;;;;;;5043362;28;20084;-52
2022/08/26 04:58:08;;;;;;;13.15;3.05;;;19.90;99.90;;;;;;5042555;28;20140;-53
2022/08/26 05:00:34;;;;;;;11.75;3.55;;;19.90;99.90;;;;;;5041739;28;20132;-52
2022/08/26 05:03:00;;;;;;;14.07;3.40;;;19.90;99.90;;;;;;5042122;28;20041;-51
2022/08/26 05:05:26;;;;;;;15.55;3.42;;;20.00;99.90;;;;;;5043327;28;20049;-51
2022/08/26 05:07:52;;;;;;;16.83;4.05;;;20.00;99.90;;;;;;5043009;28;20041;-53
2022/08/26 05:10:18;;;;;;;11.68;3.42;;;20.10;99.90;;;;;;5043024;28;20049;-53
2022/08/26 05:12:44;;;;;;;11.75;3.55;;;20.10;99.90;;;;;;5043181;28;20063;-53
2022/08/26 05:15:10;;;;;;;14.52;3.55;;;20.10;99.90;;;;;;5043353;28;20088;-52
2022/08/26 05:17:37;;;;;;;10.85;3.83;;;20.10;99.90;;;;;;5041692;28;20578;-51
2022/08/26 05:20:03;;;;;;;15.70;3.38;;;20.00;99.90;;;;;;5042067;28;20053;-53
2022/08/26 05:22:29;;;;;;;18.00;3.55;;;20.10;99.90;;;;;;5042684;28;20099;-52
2022/08/26 05:24:58;;;;;;;12.48;3.05;;;20.00;99.90;;;;;;5042313;28;20496;-52
2022/08/26 05:27:25;;;;;;;10.35;3.33;;;20.10;99.90;;;;;;5035470;28;20053;-52
2022/08/26 05:29:56;;;;;;;13.27;3.40;;;20.00;99.90;;;;;;5023785;28;20064;-52
2022/08/26 05:32:22;;;;;;;11.00;3.83;;;20.00;99.90;;;;;;5042647;28;20152;-54
2022/08/26 05:34:55;;;;;;;12.63;3.28;;;20.00;99.90;;;;;;5043600;28;20122;-50
2022/08/26 05:37:22;;;;;;;12.20;2.60;;;20.00;99.90;;;;;;5039581;28;20067;-50
2022/08/26 05:39:47;;;;;;;11.13;2.75;;;20.00;99.90;;;;;;5042244;28;20118;-51
2022/08/26 05:42:14;;;;;;;10.15;2.75;;;20.00;99.90;;;;;;5042292;28;20579;-49
2022/08/26 05:44:40;;;;;;;13.85;3.90;;;20.10;99.90;;;;;;5042255;28;20044;-51
2022/08/26 05:47:06;;;;;;;11.90;3.20;;;20.00;99.90;;;;;;5042813;28;20099;-51
2022/08/26 05:49:33;;;;;;;10.57;2.90;;;20.00;99.90;;;;;;5042153;28;20617;-51
2022/08/26 05:51:59;;;;;;;15.82;3.50;;;20.00;99.90;;;;;;5042568;28;20147;-50
2022/08/26 05:54:25;;;;;;;15.05;3.30;;;20.10;99.90;;;;;;5042382;28;20131;-49
2022/08/26 05:56:51;;;;;;;9.30;3.50;;;20.10;99.90;;;;;;5042244;28;20598;-52
2022/08/26 05:59:18;;;;;;;9.45;2.72;;;20.10;99.90;;;;;;5041656;28;20500;-54
2022/08/26 06:01:44;;;;;;;11.27;3.47;;;20.10;99.90;;;;;;5042949;28;20071;-52
2022/08/26 06:04:11;;;;;;;9.75;2.40;;;20.10;99.90;;;;;;5042476;28;20605;-51
2022/08/26 06:06:40;;;;;;;11.40;2.80;;;20.10;99.90;;;;;;5042802;28;20045;-51
2022/08/26 06:09:06;;;;;;;11.27;2.72;;;20.00;99.90;;;;;;5042933;28;20174;-48
2022/08/26 06:11:33;;;;;;;8.35;2.92;;;20.00;99.90;;;;;;5042528;28;20111;-53
2022/08/26 06:14:03;;;;;;;8.73;2.88;;;20.10;99.90;;;;;;5041914;28;20145;-51
2022/08/26 06:16:29;;;;;;;7.63;2.30;;;20.10;99.90;;;;;;5041460;28;20514;-49
2022/08/26 06:18:55;;;;;;;11.68;3.70;;;20.10;99.90;;;;;;5042920;28;20044;-50
2022/08/26 06:21:27;;;;;;;12.10;3.20;;;20.20;99.90;;;;;;5037149;28;20064;-53
2022/08/26 06:26:51;;;;;;;7.93;2.20;;;20.20;99.90;;;;;;5042402;28;20056;-52
2022/08/26 06:29:19;;;;;;;10.98;3.53;;;20.20;99.90;;;;;;5045877;28;20053;-51
2022/08/26 06:31:46;;;;;;;17.58;3.63;;;20.20;99.90;;;;;;5045618;28;20407;-51
2022/08/26 06:34:12;;;;;;;13.75;2.85;;;20.30;99.90;;;;;;5044854;28;20080;-53
2022/08/26 06:36:41;;;;;;;17.77;3.30;;;20.30;99.90;;;;;;5045042;28;20065;-54
2022/08/26 06:39:11;;;;;;;14.65;2.88;;;20.30;99.90;;;;;;5045793;28;20056;-52
2022/08/26 06:41:38;;;;;;;10.48;3.10;;;20.40;99.90;;;;;;5045719;28;20770;-51
2022/08/26 06:44:10;;;;;;;11.30;2.70;;;20.40;99.90;;;;;;5045453;28;20056;-52
2022/08/26 06:46:37;;;;;;;16.15;3.38;;;20.40;99.90;;;;;;5027792;28;20495;-52
2022/08/26 06:49:04;;;;;;;17.30;2.70;;;20.40;99.90;;;;;;5045683;28;20233;-52
2022/08/26 06:51:33;;;;;;;11.38;2.63;;;20.40;99.90;;;;;;5044920;28;20048;-53
2022/08/26 06:54:00;;;;;;;12.43;2.80;;;20.40;99.90;;;;;;5043083;28;20067;-54
2022/08/26 06:56:33;;;;;;;11.98;2.72;;;20.30;99.90;;;;;;5045493;28;20049;-55
2022/08/26 06:58:59;;;;;;;11.07;2.22;;;20.30;99.90;;;;;;5038665;28;20886;-54
2022/08/26 07:01:29;;;;;;;9.93;2.33;;;20.30;99.90;;;;;;5027416;28;20041;-54
2022/08/26 07:04:03;;;;;;;8.18;2.42;;;20.40;99.90;;;;;;5038737;28;20045;-51
2022/08/26 07:06:34;;;;;;;10.20;2.97;;;20.50;99.90;;;;;;5038488;28;20128;-51
2022/08/26 07:09:03;;;;;;;7.43;2.08;;;20.60;99.90;;;;;;5044694;28;20051;-53
2022/08/26 07:11:31;;;;;;;10.88;2.50;;;20.70;99.90;;;;;;5043631;28;20046;-53
2022/08/26 07:13:57;;;;;;;15.20;2.60;;;20.80;99.90;;;;;;5044927;28;20049;-52
2022/08/26 07:16:26;;;;;;;9.95;3.10;;;20.90;99.90;;;;;;5042937;28;20116;-52
2022/08/26 07:18:53;;;;;;;8.48;2.00;;;20.90;99.90;;;;;;5026208;28;20143;-54
2022/08/26 07:21:21;;;;;;;10.07;2.60;;;21.00;99.90;;;;;;5044576;28;20511;-52
2022/08/26 07:23:47;;;;;;;9.07;2.35;;;21.20;99.90;;;;;;5044238;28;20045;-52
2022/08/26 07:26:18;;;;;;;13.00;2.50;;;21.20;99.90;;;;;;5043092;28;20127;-53
2022/08/26 07:28:47;;;;;;;10.07;2.47;;;21.20;99.90;;;;;;5043927;28;20131;-52
2022/08/26 07:31:16;;;;;;;9.70;2.10;;;21.00;99.90;;;;;;5044188;28;20056;-50
2022/08/26 07:33:43;;;;;;;10.10;2.25;;;20.90;99.90;;;;;;5023205;28;20058;-52
2022/08/26 07:36:10;;;;;;;8.80;2.58;;;20.80;99.90;;;;;;5025937;28;20068;-51
2022/08/26 07:38:38;;;;;;;10.18;2.80;;;20.80;99.90;;;;;;5044289;28;20095;-49
2022/08/26 07:41:04;;;;;;;10.95;2.47;;;20.70;99.90;;;;;;5044972;28;20081;-51
2022/08/26 07:43:31;;;;;;;10.70;3.33;;;20.70;99.90;;;;;;5044270;28;20398;-54
2022/08/26 07:45:57;;;;;;;12.18;3.42;;;20.70;99.90;;;;;;5043468;28;20049;-50
2022/08/26 07:48:23;;;;;;;12.68;2.85;;;20.70;99.90;;;;;;5043220;28;20048;-55
2022/08/26 07:50:52;;;;;;;9.75;2.67;;;20.70;99.90;;;;;;5043465;28;20056;-52
2022/08/26 07:53:20;;;;;;;10.48;2.78;;;20.80;99.90;;;;;;5045196;28;20057;-50
2022/08/26 07:55:46;;;;;;;10.45;2.47;;;21.00;99.90;;;;;;5043806;28;20049;-53
2022/08/26 07:58:12;;;;;;;11.55;2.83;;;21.10;99.90;;;;;;5045413;28;20123;-54
2022/08/26 08:00:38;;;;;;;10.88;2.05;;;21.10;99.90;;;;;;5045467;28;20144;-52
2022/08/26 08:03:05;;;;;;;8.65;2.13;;;21.20;99.90;;;;;;5044930;28;20132;-53
2022/08/26 08:05:32;;;;;;;10.45;2.58;;;21.30;99.90;;;;;;5044191;28;20049;-54
2022/08/26 08:07:59;;;;;;;6.57;1.98;;;21.40;99.90;;;;;;5044804;28;20052;-54
2022/08/26 08:10:27;;;;;;;11.38;3.28;;;21.40;99.90;;;;;;5044247;28;20397;-52
2022/08/26 08:12:53;;;;;;;12.98;3.15;;;21.40;99.90;;;;;;5047106;28;20454;-54
2022/08/26 08:15:26;;;;;;;9.38;2.08;;;21.30;99.90;;;;;;5046715;28;20048;-53
2022/08/26 08:17:53;;;;;;;11.02;2.03;;;21.30;99.90;;;;;;5043173;28;20147;-55
2022/08/26 08:20:20;;;;;;;6.55;1.90;;;21.30;99.90;;;;;;5044003;28;20064;-53
2022/08/26 08:22:47;;;;;;;11.98;2.50;;;21.30;99.90;;;;;;5044875;28;20057;-51
2022/08/26 08:25:13;;;;;;;10.80;2.75;;;21.30;99.90;;;;;;5043745;28;20049;-52
2022/08/26 08:27:41;;;;;;;6.60;2.08;;;21.20;99.90;;;;;;5044343;28;20048;-54
2022/08/26 08:30:08;;;;;;;10.60;2.65;;;21.30;99.90;;;;;;5043890;28;20080;-54
2022/08/26 08:32:39;;;;;;;10.20;2.00;;;21.30;99.90;;;;;;5043702;28;20086;-53
2022/08/26 08:35:07;;;;;;;14.48;2.58;;;21.20;99.90;;;;;;5043084;28;20048;-52
2022/08/26 08:37:34;;;;;;;7.03;1.70;;;21.20;99.90;;;;;;5042822;28;20061;-52
2022/08/26 08:40:02;;;;;;;11.25;2.38;;;21.00;99.90;;;;;;5043245;28;20116;-52
2022/08/26 08:42:37;;;;;;;7.22;1.92;;;21.00;99.90;;;;;;5042662;28;20044;-52
2022/08/26 08:45:09;;;;;;;10.30;2.20;;;20.90;99.90;;;;;;5040164;28;20044;-54
2022/08/26 08:47:49;;;;;;;10.07;2.67;;;20.80;99.90;;;;;;5043571;28;20040;-50
2022/08/26 08:50:15;;;;;;;11.77;2.50;;;20.80;99.90;;;;;;5042568;28;20053;-55
2022/08/26 08:52:45;;;;;;;10.52;2.25;;;20.90;99.90;;;;;;5043613;28;20051;-49
2022/08/26 08:55:14;;;;;;;9.02;1.83;;;20.90;99.90;;;;;;5043982;28;20507;-52
2022/08/26 08:58:01;;;;;;;8.50;1.75;;;21.00;99.90;;;;;;5043157;28;20135;-52
2022/08/26 09:00:35;;;;;;;8.68;2.15;;;20.90;99.90;;;;;;5042599;28;20523;-52
2022/08/26 09:03:41;;;;;;;8.32;1.92;;;20.90;99.90;;;;;;5042679;28;20517;-51
2022/08/26 09:06:15;;;;;;;11.38;2.28;;;20.80;99.90;;;;;;4961399;28;20067;-53
2022/08/26 09:08:44;;;;;;;10.32;2.00;;;20.80;99.90;;;;;;4956221;28;20047;-53
2022/08/26 09:11:12;;;;;;;7.60;1.60;;;20.70;99.90;;;;;;4955782;28;20063;-52
2022/08/26 09:13:41;;;;;;;5.50;1.60;;;20.70;99.90;;;;;;4945648;28;20054;-54
2022/08/26 09:16:16;;;;;;;9.27;2.38;;;20.70;99.90;;;;;;4959940;28;20700;-52
2022/08/26 09:18:45;;;;;;;11.38;2.42;;;20.80;99.90;;;;;;4954894;28;20051;-54
2022/08/26 09:21:13;;;;;;;10.85;2.85;;;20.80;99.90;;;;;;4984291;28;20102;-54
2022/08/26 09:23:41;;;;;;;7.13;1.80;;;20.80;99.90;;;;;;5041548;28;20053;-55
2022/08/26 09:26:39;;;;;;;9.00;2.17;;;20.90;99.90;;;;;;5043472;28;20076;-52
2022/08/26 09:29:22;;;;;;;7.80;2.00;;;20.90;99.90;;;;;;5043485;28;20490;-55
2022/08/26 09:31:49;;;;;;;5.07;1.60;;;20.90;99.90;;;;;;5042424;28;20052;-55
2022/08/26 09:34:26;;;;;;;8.63;1.85;;;21.00;99.90;;;;;;5037754;28;20048;-53
2022/08/26 09:36:58;;;;;;;6.75;1.70;;;21.20;99.90;;;;;;5037710;28;20539;-54
2022/08/26 09:39:27;;;;;;;6.75;1.73;;;21.20;99.90;;;;;;5035124;28;20045;-54
2022/08/26 09:42:22;;;;;;;8.10;1.88;;;21.10;99.90;;;;;;5043091;28;20052;-54
2022/08/26 09:45:07;;;;;;;9.57;1.85;;;21.10;99.90;;;;;;5038221;28;20152;-55
2022/08/26 09:47:39;;;;;;;5.45;1.85;;;21.00;99.90;;;;;;5043411;28;20052;-55
2022/08/26 09:50:26;;;;;;;5.70;1.70;;;21.10;99.90;;;;;;5043228;28;20049;-53
2022/08/26 09:53:11;;;;;;;7.75;2.50;;;21.10;99.90;;;;;;5038804;28;20067;-52
2022/08/26 09:55:40;;;;;;;10.98;2.67;;;21.10;99.90;;;;;;5041904;28;20128;-52
2022/08/26 09:58:11;;;;;;;10.43;2.17;;;21.20;99.90;;;;;;5042798;28;20534;-54
2022/08/26 10:00:52;;;;;;;8.57;1.92;;;21.20;99.90;;;;;;5041180;28;20103;-54
2022/08/26 10:03:28;;;;;;;10.45;2.67;;;21.30;99.90;;;;;;5038992;28;20084;-53
2022/08/26 10:06:15;;;;;;;9.88;2.00;;;21.40;99.90;;;;;;5043423;28;20563;-54
2022/08/26 10:08:45;;;;;;;11.63;2.40;;;21.60;99.90;;;;;;5009118;28;20056;-54
2022/08/26 10:11:29;;;;;;;12.43;2.38;;;21.80;99.90;;;;;;5027711;28;20045;-55
2022/08/26 10:14:00;;;;;;;7.13;1.90;;;21.80;99.90;;;;;;5044628;28;20053;-54
2022/08/26 10:16:41;;;;;;;7.95;2.20;;;21.90;99.90;;;;;;5037819;28;20392;-53
2022/08/26 10:19:12;;;;;;;9.82;2.30;;;22.00;99.90;;;;;;5044633;28;20045;-54
2022/08/26 10:21:51;;;;;;;8.82;1.88;;;22.10;99.90;;;;;;5042912;28;20053;-52
2022/08/26 10:24:22;;;;;;;8.02;1.85;;;22.20;99.90;;;;;;5045809;28;20057;-53
2022/08/26 10:27:02;;;;;;;8.90;2.58;;;22.00;99.90;;;;;;5037584;28;20049;-54
2022/08/26 10:29:49;;;;;;;5.95;1.77;;;22.00;99.90;;;;;;5048009;28;20045;-52
2022/08/26 10:32:34;;;;;;;6.85;1.65;;;21.80;99.90;;;;;;5042305;28;20048;-56
2022/08/26 10:35:02;;;;;;;8.50;1.67;;;21.80;99.90;;;;;;5045342;28;20094;-54
2022/08/26 10:37:40;;;;;;;7.18;1.92;;;21.70;99.90;;;;;;5044543;28;21527;-54
2022/08/26 10:40:06;;;;;;;5.85;1.73;;;21.70;99.90;;;;;;5044420;28;20055;-53
2022/08/26 10:42:44;;;;;;;6.15;1.50;;;21.90;99.90;;;;;;5046725;28;20045;-51
2022/08/26 10:45:20;;;;;;;9.27;1.65;;;22.00;99.90;;;;;;5045806;28;20053;-53
2022/08/26 10:47:56;;;;;;;10.18;1.70;;;22.10;99.90;;;;;;5047901;28;20500;-53
2022/08/26 10:50:29;;;;;;;6.60;1.83;;;22.40;99.90;;;;;;5024439;28;20128;-55
2022/08/26 10:53:22;;;;;;;6.68;1.92;;;22.60;99.90;;;;;;5040277;28;20156;-53
2022/08/26 10:56:00;;;;;;;5.72;1.75;;;22.70;99.90;;;;;;5043256;28;20045;-53
2022/08/26 10:58:37;;;;;;;5.72;1.63;;;22.70;99.90;;;;;;5023114;28;20127;-54
2022/08/26 11:04:06;;;;;;;8.93;1.70;;;22.80;99.90;;;;;;5043943;28;20084;-55
2022/08/26 11:06:32;;;;;;;8.07;2.10;;;22.70;99.90;;;;;;5042808;28;20075;-54
2022/08/26 11:09:05;;;;;;;9.23;1.67;;;22.60;99.90;;;;;;5043486;28;20041;-54
2022/08/26 11:11:41;;;;;;;5.95;2.20;;;22.40;99.90;;;;;;5042179;28;20173;-58
2022/08/26 11:14:44;;;;;;;8.05;2.05;;;22.20;99.90;;;;;;5044287;28;20464;-53
2022/08/26 11:17:10;;;;;;;7.72;1.85;;;21.90;99.90;;;;;;4945611;28;20055;-51
2022/08/26 11:19:40;;;;;;;7.63;1.92;;;21.80;99.90;;;;;;4963579;28;20058;-53
2022/08/26 11:22:36;;;;;;;9.68;2.38;;;21.60;99.90;;;;;;4963705;28;20093;-55
2022/08/26 11:25:17;;;;;;;11.60;2.65;;;21.50;99.90;;;;;;4957169;28;20415;-53
2022/08/26 11:27:49;;;;;;;6.97;1.80;;;21.40;99.90;;;;;;4962529;28;20051;-55
2022/08/26 11:30:32;;;;;;;10.40;2.63;;;21.40;99.90;;;;;;4962570;28;20054;-55
2022/08/26 11:32:59;;;;;;;8.20;2.08;;;21.30;99.90;;;;;;4962907;28;20066;-52
2022/08/26 11:35:45;;;;;;;6.88;1.95;;;21.30;99.90;;;;;;4945688;28;20082;-55
2022/08/26 11:38:27;;;;;;;21.70;3.75;;;21.20;99.90;;;;;;4968134;28;20058;-52
2022/08/26 11:41:18;;;;;;;5.97;1.60;;;21.20;99.90;;;;;;4962627;28;20051;-55
2022/08/26 11:43:58;;;;;;;7.47;2.20;;;21.20;99.90;;;;;;4970224;28;20146;-53
2022/08/26 11:46:30;;;;;;;9.88;2.38;;;21.30;99.90;;;;;;4959699;28;20502;-54
2022/08/26 11:49:05;;;;;;;7.15;2.60;;;21.30;99.90;;;;;;4961982;28;20450;-53
2022/08/26 11:51:35;;;;;;;7.55;1.90;;;21.40;99.90;;;;;;5001095;28;20057;-51
2022/08/26 11:54:14;;;;;;;6.45;2.08;;;21.30;99.90;;;;;;5022740;28;20053;-53
2022/08/26 11:56:42;;;;;;;7.63;1.90;;;21.30;99.90;;;;;;5023041;28;20195;-53
2022/08/26 11:59:14;;;;;;;10.50;2.13;;;21.40;99.90;;;;;;5023802;28;20049;-54
2022/08/26 12:01:48;;;;;;;8.05;2.22;;;21.40;99.90;;;;;;5024074;28;20049;-52
2022/08/26 12:04:37;;;;;;;10.38;2.03;;;21.40;99.90;;;;;;5023193;28;20060;-54
2022/08/26 12:07:07;;;;;;;7.63;1.75;;;21.30;99.90;;;;;;5023017;28;20412;-54
2022/08/26 12:09:36;;;;;;;6.72;1.95;;;21.20;99.90;;;;;;5023853;28;20053;-54
2022/08/26 12:12:21;;;;;;;9.82;2.22;;;21.00;99.90;;;;;;5024034;28;20110;-55
2022/08/26 12:14:48;;;;;;;7.90;1.85;;;20.90;99.90;;;;;;5024148;28;20115;-55
2022/08/26 12:17:25;;;;;;;9.80;2.22;;;20.90;99.90;;;;;;5023804;28;20531;-54
2022/08/26 12:19:51;;;;;;;6.47;1.98;;;21.00;99.90;;;;;;5023181;28;20357;-53
2022/08/26 12:22:22;;;;;;;8.75;2.03;;;20.80;99.90;;;;;;5037764;28;20518;-57
2022/08/26 12:25:07;;;;;;;5.57;1.85;;;20.80;99.90;;;;;;5043053;28;20063;-54
2022/08/26 12:27:45;;;;;;;7.63;1.77;;;20.80;99.90;;;;;;5043283;28;20052;-54
2022/08/26 12:30:22;;;;;;;5.85;1.75;;;20.70;99.90;;;;;;5043152;28;20088;-54
2022/08/26 12:33:12;;;;;;;5.60;2.05;;;20.60;99.90;;;;;;5043806;28;20051;-53
2022/08/26 12:35:39;;;;;;;7.45;1.80;;;20.50;99.90;;;;;;5043996;28;20510;-56
2022/08/26 12:38:21;;;;;;;7.65;2.20;;;20.40;99.90;;;;;;5042752;28;20045;-54
2022/08/26 12:40:49;;;;;;;6.38;1.80;;;20.50;99.90;;;;;;5043254;28;20060;-54
2022/08/26 12:43:37;;;;;;;8.05;2.25;;;20.50;99.90;;;;;;5043140;28;20061;-52
2022/08/26 12:46:04;;;;;;;10.05;2.63;;;20.60;99.90;;;;;;5035259;28;20507;-52
2022/08/26 12:48:33;;;;;;;8.50;2.60;;;20.60;99.90;;;;;;5042687;28;20052;-54
2022/08/26 12:51:00;;;;;;;12.55;2.80;;;20.60;99.90;;;;;;5042903;28;20092;-55
2022/08/26 12:53:29;;;;;;;5.68;1.88;;;20.70;99.90;;;;;;5037813;28;20053;-50
2022/08/26 12:56:01;;;;;;;11.60;2.40;;;20.80;99.90;;;;;;5043534;28;20115;-53
2022/08/26 12:58:41;;;;;;;8.95;1.90;;;20.80;99.90;;;;;;5041894;28;20606;-53
2022/08/26 13:01:07;;;;;;;9.10;3.33;;;20.80;99.90;;;;;;5041856;28;20056;-52
2022/08/26 13:03:33;;;;;;;11.70;2.40;;;20.90;99.90;;;;;;5042093;28;20496;-53